createdAt,value
2022-11-06T00:00:27.499Z,67.72
2022-11-06T00:02:59.818Z,67.76
2022-11-06T00:05:41.864Z,68.54
2022-11-06T00:08:11.636Z,68.26
2022-11-06T00:10:41.332Z,68.40
2022-11-06T00:13:13.405Z,68.42
2022-11-06T00:15:42.838Z,68.50
2022-11-06T00:18:12.486Z,68.52
2022-11-06T00:20:42.148Z,68.23
2022-11-06T00:23:11.631Z,68.23
2022-11-06T00:25:43.407Z,68.76
2022-11-06T00:28:15.650Z,68.93
2022-11-06T00:30:45.269Z,69.07
2022-11-06T00:33:14.749Z,69.22
2022-11-06T00:35:44.229Z,69.28
2022-11-06T00:38:21.513Z,69.17
2022-11-06T00:40:50.952Z,68.62
2022-11-06T00:43:23.109Z,68.48
2022-11-06T00:45:52.533Z,69.00
2022-11-06T00:48:22.024Z,69.39
2022-11-06T00:50:51.459Z,69.12
2022-11-06T00:53:21.134Z,69.58
2022-11-06T00:55:50.579Z,69.27
2022-11-06T00:58:20.046Z,68.97
2022-11-06T01:00:52.066Z,68.80
2022-11-06T01:03:21.487Z,68.83
2022-11-06T01:05:50.951Z,70.49
2022-11-06T01:08:20.394Z,70.32
2022-11-06T01:10:49.860Z,70.43
2022-11-06T01:13:19.323Z,70.29
2022-11-06T01:15:48.771Z,70.12
2022-11-06T01:18:20.793Z,69.76
2022-11-06T01:20:50.269Z,69.87
2022-11-06T01:23:19.682Z,69.45
2022-11-06T01:25:58.935Z,69.24
2022-11-06T01:28:28.369Z,69.50
2022-11-06T01:30:57.856Z,69.65
2022-11-06T01:33:29.874Z,69.30
2022-11-06T01:35:59.322Z,69.47
2022-11-06T01:38:28.745Z,69.52
2022-11-06T01:40:58.217Z,69.70
2022-11-06T01:43:28.851Z,69.90
2022-11-06T01:45:58.501Z,70.02
2022-11-06T01:48:30.535Z,69.99
2022-11-06T01:51:01.126Z,69.20
2022-11-06T01:53:30.571Z,69.78
2022-11-06T01:56:02.528Z,70.33
2022-11-06T01:58:33.877Z,70.41
2022-11-06T02:01:03.314Z,70.34
2022-11-06T02:03:35.323Z,69.99
2022-11-06T02:06:04.765Z,70.28
2022-11-06T02:08:34.222Z,70.33
2022-11-06T02:11:03.639Z,70.73
2022-11-06T02:13:38.125Z,70.82
2022-11-06T02:16:12.360Z,71.12
2022-11-06T02:19:05.199Z,71.04
2022-11-06T02:21:55.401Z,70.94
2022-11-06T02:24:45.111Z,71.09
2022-11-06T02:27:17.616Z,71.04
2022-11-06T02:29:52.340Z,70.54
2022-11-06T02:32:24.320Z,70.32
2022-11-06T02:34:54.499Z,70.22
2022-11-06T02:37:26.602Z,70.34
2022-11-06T02:39:56.183Z,69.93
2022-11-06T02:42:28.688Z,70.11
2022-11-06T02:44:58.438Z,70.61
2022-11-06T02:47:28.538Z,70.54
2022-11-06T02:49:59.038Z,70.38
2022-11-06T02:52:29.759Z,70.16
2022-11-06T02:55:02.747Z,70.44
2022-11-06T02:57:35.703Z,70.59
2022-11-06T03:00:06.622Z,70.90
2022-11-06T03:02:40.903Z,71.13
2022-11-06T03:05:12.343Z,71.21
2022-11-06T03:07:43.246Z,71.02
2022-11-06T03:10:13.010Z,71.01
2022-11-06T03:12:50.724Z,71.03
2022-11-06T03:15:24.053Z,71.66
2022-11-06T03:17:54.743Z,71.64
2022-11-06T03:20:26.470Z,71.22
2022-11-06T03:22:58.239Z,71.07
2022-11-06T03:25:29.715Z,71.13
2022-11-06T03:28:05.143Z,71.35
2022-11-06T03:30:34.995Z,71.23
2022-11-06T03:33:07.438Z,71.27
2022-11-06T03:35:38.364Z,71.30
2022-11-06T03:38:10.668Z,71.54
2022-11-06T03:40:45.596Z,71.36
2022-11-06T03:43:19.074Z,71.16
2022-11-06T03:45:48.625Z,71.70
2022-11-06T03:48:21.552Z,73.03
2022-11-06T03:50:53.042Z,74.50
2022-11-06T03:53:25.083Z,75.44
2022-11-06T03:55:56.181Z,75.53
2022-11-06T03:58:28.782Z,74.57
2022-11-06T04:00:58.427Z,73.34
2022-11-06T04:03:29.664Z,73.14
2022-11-06T04:06:01.529Z,72.50
2022-11-06T04:08:55.460Z,72.27
2022-11-06T04:11:38.618Z,71.94
2022-11-06T04:14:10.756Z,71.00
2022-11-06T04:16:41.423Z,70.35
2022-11-06T04:19:13.800Z,70.42
2022-11-06T04:21:50.241Z,70.51
2022-11-06T04:24:43.415Z,70.49
2022-11-06T04:27:29.211Z,69.92
2022-11-06T04:30:09.627Z,70.96
2022-11-06T04:33:00.100Z,71.91
2022-11-06T04:35:33.595Z,72.53
2022-11-06T04:38:05.649Z,72.36
2022-11-06T04:40:38.518Z,71.64
2022-11-06T04:43:09.354Z,71.26
2022-11-06T04:45:43.321Z,70.41
2022-11-06T04:48:12.959Z,70.32
2022-11-06T04:50:44.687Z,69.79
2022-11-06T04:53:14.247Z,69.92
2022-11-06T04:55:49.154Z,70.38
2022-11-06T04:58:18.702Z,70.63
2022-11-06T05:00:51.767Z,70.53
2022-11-06T05:03:21.643Z,70.69
2022-11-06T05:05:51.188Z,70.65
2022-11-06T05:08:22.474Z,70.57
2022-11-06T05:10:51.997Z,71.04
2022-11-06T05:13:21.538Z,72.20
2022-11-06T05:15:57.724Z,71.91
2022-11-06T05:18:27.308Z,71.74
2022-11-06T05:21:17.401Z,72.61
2022-11-06T05:23:44.382Z,71.95
2022-11-06T05:26:13.949Z,71.54
2022-11-06T05:28:43.769Z,71.09
2022-11-06T05:31:15.995Z,70.39
2022-11-06T05:33:45.546Z,69.83
2022-11-06T05:36:15.311Z,69.86
2022-11-06T05:38:44.912Z,70.06
2022-11-06T05:41:14.452Z,69.80
2022-11-06T05:43:44.308Z,70.20
2022-11-06T05:46:46.539Z,70.04
2022-11-06T05:49:06.276Z,69.64
2022-11-06T05:51:35.925Z,71.68
2022-11-06T05:54:05.505Z,73.58
2022-11-06T05:56:35.032Z,75.13
2022-11-06T05:59:04.595Z,76.47
2022-11-06T06:01:36.818Z,76.47
2022-11-06T06:04:08.173Z,76.14
2022-11-06T06:06:37.696Z,75.73
2022-11-06T06:09:07.316Z,75.34
2022-11-06T06:11:36.935Z,74.58
2022-11-06T06:14:06.502Z,74.54
2022-11-06T06:16:38.746Z,73.97
2022-11-06T06:19:08.376Z,73.92
2022-11-06T06:21:37.899Z,74.25
2022-11-06T06:24:08.165Z,74.22
2022-11-06T06:26:37.673Z,73.62
2022-11-06T06:29:07.236Z,72.28
2022-11-06T06:31:39.446Z,72.37
2022-11-06T06:34:09.021Z,71.54
2022-11-06T06:36:38.561Z,71.19
2022-11-06T06:39:08.120Z,70.35
2022-11-06T06:41:37.631Z,69.98
2022-11-06T06:44:07.749Z,69.40
2022-11-06T06:46:39.919Z,69.37
2022-11-06T06:49:09.523Z,69.04
2022-11-06T06:51:39.058Z,68.70
2022-11-06T06:54:08.930Z,69.07
2022-11-06T06:56:38.491Z,69.11
2022-11-06T06:59:08.076Z,69.12
2022-11-06T07:01:40.326Z,68.86
2022-11-06T07:04:09.965Z,68.39
2022-11-06T07:06:39.502Z,68.24
2022-11-06T07:09:09.529Z,67.49
2022-11-06T07:11:39.120Z,68.54
2022-11-06T07:14:08.662Z,69.92
2022-11-06T07:16:40.813Z,70.27
2022-11-06T07:19:10.334Z,70.26
2022-11-06T07:21:39.759Z,69.94
2022-11-06T07:24:09.476Z,69.64
2022-11-06T07:26:38.927Z,70.71
2022-11-06T07:29:08.365Z,72.13
2022-11-06T07:31:40.398Z,72.11
2022-11-06T07:34:09.853Z,72.20
2022-11-06T07:36:39.280Z,72.81
2022-11-06T07:39:08.718Z,74.70
2022-11-06T07:41:38.173Z,74.91
2022-11-06T07:44:07.639Z,76.38
2022-11-06T07:46:36.801Z,77.36
2022-11-06T07:49:08.589Z,77.28
2022-11-06T07:51:37.760Z,76.24
2022-11-06T07:54:06.981Z,74.94
2022-11-06T07:56:36.155Z,74.87
2022-11-06T07:59:05.355Z,74.52
2022-11-06T08:01:37.508Z,75.16
2022-11-06T08:04:09.373Z,74.68
2022-11-06T08:06:38.529Z,73.64
2022-11-06T08:09:08.338Z,72.12
2022-11-06T08:11:37.570Z,72.51
2022-11-06T08:14:06.783Z,72.69
2022-11-06T08:16:36.019Z,74.51
2022-11-06T08:19:05.323Z,74.90
2022-11-06T08:21:37.166Z,75.33
2022-11-06T08:24:06.819Z,73.44
2022-11-06T08:26:36.010Z,71.85
2022-11-06T08:29:05.182Z,71.58
2022-11-06T08:31:34.350Z,71.51
2022-11-06T08:34:03.530Z,72.94
2022-11-06T08:36:32.719Z,74.65
2022-11-06T08:39:04.481Z,74.28
2022-11-06T08:41:34.370Z,73.80
2022-11-06T08:44:03.546Z,73.71
2022-11-06T08:46:32.747Z,72.86
2022-11-06T08:49:01.940Z,75.23
2022-11-06T08:51:31.132Z,74.63
2022-11-06T08:54:00.617Z,75.89
2022-11-06T08:56:32.409Z,76.83
2022-11-06T08:59:01.634Z,76.63
2022-11-06T09:01:30.925Z,75.32
2022-11-06T09:04:00.242Z,75.16
2022-11-06T09:06:29.430Z,74.18
2022-11-06T09:08:59.008Z,74.08
2022-11-06T09:11:28.491Z,73.74
2022-11-06T09:14:00.564Z,73.45
2022-11-06T09:16:30.030Z,72.56
2022-11-06T09:18:59.561Z,72.06
2022-11-06T09:21:29.013Z,72.39
2022-11-06T09:23:58.469Z,73.18
2022-11-06T09:26:27.909Z,73.66
2022-11-06T09:28:59.996Z,74.68
2022-11-06T09:31:29.583Z,73.67
2022-11-06T09:33:59.024Z,72.61
2022-11-06T09:36:28.496Z,72.26
2022-11-06T09:38:57.944Z,72.56
2022-11-06T09:41:36.258Z,72.58
2022-11-06T09:44:15.661Z,72.22
2022-11-06T09:46:46.282Z,71.37
2022-11-06T09:49:20.145Z,71.54
2022-11-06T09:51:51.503Z,70.92
2022-11-06T09:54:22.792Z,70.87
2022-11-06T09:56:52.967Z,71.24
2022-11-06T09:59:24.971Z,71.46
2022-11-06T10:01:55.627Z,70.86
2022-11-06T10:04:31.557Z,71.49
2022-11-06T10:07:00.993Z,71.44
2022-11-06T10:09:30.468Z,71.21
2022-11-06T10:12:05.830Z,71.43
2022-11-06T10:14:46.027Z,71.17
2022-11-06T10:17:20.400Z,70.67
2022-11-06T10:19:51.709Z,70.88
2022-11-06T10:22:23.437Z,71.59
2022-11-06T10:24:57.411Z,75.03
2022-11-06T10:27:28.830Z,76.55
2022-11-06T10:30:06.807Z,74.18
2022-11-06T10:33:09.791Z,72.42
2022-11-06T10:35:40.307Z,71.16
2022-11-06T10:38:13.220Z,70.88
2022-11-06T10:40:42.936Z,71.57
2022-11-06T10:43:19.167Z,71.12
2022-11-06T10:45:53.112Z,70.36
2022-11-06T10:48:30.859Z,70.46
2022-11-06T10:51:08.014Z,70.58
2022-11-06T10:53:41.136Z,72.06
2022-11-06T10:56:23.250Z,72.64
2022-11-06T10:58:52.671Z,73.42
2022-11-06T11:01:24.764Z,74.37
2022-11-06T11:03:54.335Z,74.88
2022-11-06T11:06:23.812Z,74.67
2022-11-06T11:08:53.569Z,74.28
2022-11-06T11:11:25.294Z,73.08
2022-11-06T11:14:15.299Z,71.39
2022-11-06T11:16:47.946Z,70.49
2022-11-06T11:19:19.123Z,70.64
2022-11-06T11:21:54.644Z,70.23
2022-11-06T11:24:24.127Z,69.87
2022-11-06T11:26:54.493Z,69.79
2022-11-06T11:29:26.369Z,70.65
2022-11-06T11:31:59.249Z,70.19
2022-11-06T11:34:29.659Z,69.24
2022-11-06T11:37:00.804Z,67.45
2022-11-06T11:39:31.167Z,66.60
2022-11-06T11:42:19.679Z,67.79
2022-11-06T11:44:49.147Z,68.82
2022-11-06T11:47:27.151Z,70.22
2022-11-06T11:49:56.573Z,69.62
2022-11-06T11:52:26.079Z,69.74
2022-11-06T11:54:55.891Z,69.39
2022-11-06T11:57:26.586Z,69.23
2022-11-06T11:59:57.098Z,68.70
2022-11-06T12:02:30.208Z,67.43
2022-11-06T12:05:00.618Z,66.49
2022-11-06T12:07:31.232Z,65.71
2022-11-06T12:10:00.744Z,65.05
2022-11-06T12:12:32.648Z,64.92
2022-11-06T12:15:17.697Z,65.50
2022-11-06T12:17:51.997Z,65.64
2022-11-06T12:20:23.078Z,65.50
2022-11-06T12:22:53.407Z,66.19
2022-11-06T12:25:25.050Z,66.28
2022-11-06T12:27:56.257Z,66.37
2022-11-06T12:30:25.693Z,66.09
2022-11-06T12:33:04.259Z,67.06
2022-11-06T12:35:34.382Z,68.94
2022-11-06T12:38:08.614Z,69.05
2022-11-06T12:40:40.477Z,67.78
2022-11-06T12:43:19.131Z,67.88
2022-11-06T12:45:58.384Z,67.70
2022-11-06T12:48:37.485Z,67.38
2022-11-06T12:51:08.854Z,68.43
2022-11-06T12:53:43.872Z,68.94
2022-11-06T12:56:17.420Z,67.78
2022-11-06T12:59:00.777Z,67.17
2022-11-06T13:01:37.435Z,67.44
2022-11-06T13:04:17.926Z,67.45
2022-11-06T13:07:11.478Z,67.10
2022-11-06T13:09:43.613Z,66.66
2022-11-06T13:12:16.746Z,66.35
2022-11-06T13:14:50.042Z,66.00
2022-11-06T13:17:21.571Z,66.55
2022-11-06T13:19:55.847Z,67.34
2022-11-06T13:22:27.820Z,66.71
2022-11-06T13:25:01.081Z,65.90
2022-11-06T13:27:34.166Z,64.97
2022-11-06T13:30:05.617Z,64.56
2022-11-06T13:32:35.801Z,64.78
2022-11-06T13:35:08.178Z,66.12
2022-11-06T13:37:41.696Z,67.08
2022-11-06T13:40:20.224Z,67.00
2022-11-06T13:42:51.836Z,66.88
2022-11-06T13:45:21.348Z,66.81
2022-11-06T13:47:58.574Z,67.00
2022-11-06T13:50:34.002Z,67.34
2022-11-06T13:53:06.038Z,68.37
2022-11-06T13:55:41.901Z,67.86
2022-11-06T13:58:24.648Z,67.11
2022-11-06T14:01:02.537Z,65.71
2022-11-06T14:03:44.236Z,65.23
2022-11-06T14:06:17.673Z,66.18
2022-11-06T14:08:47.671Z,66.73
2022-11-06T14:11:18.270Z,67.66
2022-11-06T14:13:59.906Z,68.94
2022-11-06T14:16:31.231Z,68.64
2022-11-06T14:19:03.506Z,68.77
2022-11-06T14:21:58.385Z,68.51
2022-11-06T14:24:36.569Z,68.09
2022-11-06T14:27:06.756Z,67.03
2022-11-06T14:30:05.395Z,65.16
2022-11-06T14:32:43.026Z,65.37
2022-11-06T14:35:51.288Z,65.70
2022-11-06T14:38:36.670Z,65.57
2022-11-06T14:41:23.071Z,65.29
2022-11-06T14:43:52.518Z,65.54
2022-11-06T14:46:22.992Z,65.62
2022-11-06T14:48:53.663Z,66.06
2022-11-06T14:51:28.739Z,65.17
2022-11-06T14:54:01.632Z,65.50
2022-11-06T14:56:32.344Z,66.29
2022-11-06T14:59:03.503Z,66.59
2022-11-06T15:01:33.275Z,66.90
2022-11-06T15:04:04.047Z,66.37
2022-11-06T15:06:43.431Z,66.62
2022-11-06T15:09:18.851Z,65.81
2022-11-06T15:11:55.493Z,65.53
2022-11-06T15:14:55.041Z,65.81
2022-11-06T15:17:25.016Z,66.50
2022-11-06T15:20:00.427Z,67.12
2022-11-06T15:22:34.231Z,66.50
2022-11-06T15:25:15.648Z,67.43
2022-11-06T15:27:46.293Z,67.47
2022-11-06T15:30:18.049Z,67.60
2022-11-06T15:32:47.784Z,66.89
2022-11-06T15:35:18.566Z,66.24
2022-11-06T15:37:48.770Z,66.00
2022-11-06T15:40:31.207Z,66.37
2022-11-06T15:43:02.666Z,65.92
2022-11-06T15:45:32.278Z,67.00
2022-11-06T15:48:02.991Z,66.54
2022-11-06T15:50:32.673Z,65.94
2022-11-06T15:53:29.456Z,65.40
2022-11-06T15:56:02.726Z,66.59
2022-11-06T15:58:33.292Z,65.82
2022-11-06T16:01:03.198Z,65.61
2022-11-06T16:03:34.078Z,65.32
2022-11-06T16:06:04.630Z,64.56
2022-11-06T16:08:34.156Z,65.12
2022-11-06T16:11:12.297Z,65.46
2022-11-06T16:13:42.774Z,65.00
2022-11-06T16:16:37.182Z,64.88
2022-11-06T16:19:07.568Z,64.46
2022-11-06T16:21:37.647Z,64.32
2022-11-06T16:24:12.432Z,64.56
2022-11-06T16:26:47.370Z,64.59
2022-11-06T16:29:20.556Z,64.53
2022-11-06T16:31:51.020Z,64.78
2022-11-06T16:34:24.595Z,65.02
2022-11-06T16:36:55.867Z,64.94
2022-11-06T16:39:49.933Z,65.24
2022-11-06T16:42:29.234Z,65.81
2022-11-06T16:45:17.474Z,65.42
2022-11-06T16:47:58.314Z,65.95
2022-11-06T16:50:46.345Z,66.12
2022-11-06T16:53:16.894Z,66.37
2022-11-06T16:55:46.418Z,66.87
2022-11-06T16:58:19.214Z,67.01
2022-11-06T17:00:48.648Z,67.48
2022-11-06T17:03:21.863Z,68.34
2022-11-06T17:05:53.852Z,69.22
2022-11-06T17:08:27.715Z,70.44
2022-11-06T17:10:57.289Z,71.05
2022-11-06T17:13:30.006Z,72.02
2022-11-06T17:16:00.446Z,72.03
2022-11-06T17:18:31.236Z,71.74
2022-11-06T17:21:01.699Z,72.22
2022-11-06T17:23:31.842Z,72.01
2022-11-06T17:26:02.152Z,71.70
2022-11-06T17:28:34.216Z,70.91
2022-11-06T17:31:03.700Z,71.22
2022-11-06T17:33:33.160Z,71.71
2022-11-06T17:36:02.909Z,71.96
2022-11-06T17:38:32.379Z,71.42
2022-11-06T17:41:01.831Z,71.26
2022-11-06T17:43:33.951Z,71.26
2022-11-06T17:46:03.823Z,71.10
2022-11-06T17:48:33.323Z,70.77
2022-11-06T17:51:15.259Z,71.20
2022-11-06T17:53:44.728Z,70.94
2022-11-06T17:56:14.189Z,71.01
2022-11-06T17:58:46.238Z,71.02
2022-11-06T18:01:15.731Z,70.36
2022-11-06T18:03:46.253Z,70.11
2022-11-06T18:06:16.892Z,70.15
2022-11-06T18:08:46.557Z,69.44
2022-11-06T18:11:16.129Z,69.07
2022-11-06T18:13:48.182Z,69.28
2022-11-06T18:16:18.247Z,69.55
2022-11-06T18:18:47.727Z,69.27
2022-11-06T18:21:17.233Z,69.20
2022-11-06T18:23:46.775Z,69.01
2022-11-06T18:26:16.229Z,68.87
2022-11-06T18:28:48.294Z,68.90
2022-11-06T18:31:17.747Z,68.45
2022-11-06T18:33:47.346Z,68.92
2022-11-06T18:36:17.183Z,69.19
2022-11-06T18:38:46.980Z,69.37
2022-11-06T18:41:17.266Z,69.59
2022-11-06T18:43:49.420Z,69.28
2022-11-06T18:46:19.712Z,68.73
2022-11-06T18:48:49.571Z,69.16
2022-11-06T18:51:33.491Z,69.16
2022-11-06T18:54:04.700Z,69.09
2022-11-06T18:56:36.007Z,69.17
2022-11-06T18:59:08.954Z,68.88
2022-11-06T19:01:39.123Z,69.20
2022-11-06T19:04:10.681Z,69.39
2022-11-06T19:06:40.987Z,69.22
2022-11-06T19:09:10.700Z,69.58
2022-11-06T19:11:40.162Z,69.70
2022-11-06T19:14:12.218Z,69.44
2022-11-06T19:16:43.388Z,69.31
2022-11-06T19:19:13.043Z,69.30
2022-11-06T19:21:46.181Z,69.53
2022-11-06T19:24:15.720Z,69.84
2022-11-06T19:26:45.320Z,69.73
2022-11-06T19:29:17.423Z,69.70
2022-11-06T19:31:46.906Z,69.69
2022-11-06T19:34:16.705Z,69.68
2022-11-06T19:36:46.343Z,69.86
2022-11-06T19:39:15.931Z,70.16
2022-11-06T19:41:45.402Z,69.85
2022-11-06T19:44:17.694Z,69.93
2022-11-06T19:46:47.180Z,69.60
2022-11-06T19:49:16.683Z,69.68
2022-11-06T19:51:46.133Z,70.05
2022-11-06T19:54:15.616Z,69.73
2022-11-06T19:57:29.220Z,69.64
2022-11-06T19:59:37.568Z,69.28
2022-11-06T20:02:07.160Z,69.29
2022-11-06T20:04:36.773Z,69.35
2022-11-06T20:07:06.248Z,68.94
2022-11-06T20:09:36.274Z,67.81
2022-11-06T20:12:06.104Z,68.35
2022-11-06T20:14:38.188Z,68.57
2022-11-06T20:17:07.649Z,68.63
2022-11-06T20:19:37.177Z,68.25
2022-11-06T20:22:06.662Z,67.90
2022-11-06T20:24:37.931Z,68.22
2022-11-06T20:27:11.390Z,67.71
2022-11-06T20:29:44.220Z,67.60
2022-11-06T20:32:18.680Z,67.38
2022-11-06T20:34:48.507Z,67.37
2022-11-06T20:37:17.975Z,67.22
2022-11-06T20:39:47.632Z,67.44
2022-11-06T20:42:17.145Z,67.35
2022-11-06T20:44:49.206Z,67.10
2022-11-06T20:47:19.168Z,66.85
2022-11-06T20:49:48.797Z,67.23
2022-11-06T20:52:18.278Z,67.30
2022-11-06T20:54:47.979Z,67.28
2022-11-06T20:57:17.689Z,66.77
2022-11-06T20:59:49.763Z,67.02
2022-11-06T21:02:19.410Z,67.11
2022-11-06T21:04:48.966Z,67.28
2022-11-06T21:07:18.432Z,66.99
2022-11-06T21:09:48.323Z,66.63
2022-11-06T21:12:17.786Z,66.56
2022-11-06T21:14:49.838Z,66.36
2022-11-06T21:17:19.342Z,66.69
2022-11-06T21:19:48.820Z,66.56
2022-11-06T21:22:18.288Z,66.73
2022-11-06T21:24:47.774Z,66.57
2022-11-06T21:27:17.264Z,66.65
2022-11-06T21:29:49.377Z,66.00
2022-11-06T21:32:18.864Z,66.51
2022-11-06T21:34:48.337Z,66.86
2022-11-06T21:37:17.817Z,66.82
2022-11-06T21:39:47.419Z,66.45
2022-11-06T21:42:16.960Z,65.34
2022-11-06T21:44:49.070Z,66.71
2022-11-06T21:47:18.590Z,67.02
2022-11-06T21:49:54.028Z,66.78
2022-11-06T21:52:36.331Z,66.57
2022-11-06T21:55:18.444Z,65.62
2022-11-06T21:57:47.963Z,65.65
2022-11-06T22:00:20.534Z,65.11
2022-11-06T22:02:51.099Z,64.50
2022-11-06T22:05:20.993Z,64.92
2022-11-06T22:07:50.647Z,64.62
2022-11-06T22:10:20.459Z,64.44
2022-11-06T22:12:49.953Z,65.00
2022-11-06T22:15:22.045Z,65.13
2022-11-06T22:17:51.486Z,65.50
2022-11-06T22:20:21.186Z,65.22
2022-11-06T22:22:50.800Z,64.44
2022-11-06T22:25:20.406Z,65.03
2022-11-06T22:27:50.023Z,64.83
2022-11-06T22:30:22.209Z,65.31
2022-11-06T22:32:51.748Z,65.15
2022-11-06T22:35:21.215Z,65.75
2022-11-06T22:37:50.682Z,65.98
2022-11-06T22:40:20.464Z,66.17
2022-11-06T22:42:49.960Z,66.52
2022-11-06T22:45:23.381Z,66.68
2022-11-06T22:47:52.862Z,67.28
2022-11-06T22:50:22.448Z,67.53
2022-11-06T22:52:52.058Z,68.27
2022-11-06T22:55:21.522Z,68.42
2022-11-06T22:57:50.986Z,68.33
2022-11-06T23:00:23.935Z,68.56
2022-11-06T23:02:53.489Z,68.12
2022-11-06T23:05:23.184Z,67.92
2022-11-06T23:07:52.688Z,68.01
2022-11-06T23:10:28.872Z,68.49
2022-11-06T23:12:59.241Z,67.98
2022-11-06T23:15:31.557Z,68.77
2022-11-06T23:18:01.025Z,68.46
2022-11-06T23:20:32.583Z,68.47
2022-11-06T23:23:02.152Z,68.87
2022-11-06T23:25:31.816Z,68.64
2022-11-06T23:28:01.900Z,69.38
2022-11-06T23:30:34.471Z,68.86
2022-11-06T23:33:04.084Z,68.79
2022-11-06T23:35:33.910Z,69.47
2022-11-06T23:38:03.366Z,68.96
2022-11-06T23:40:32.895Z,69.21
2022-11-06T23:43:02.367Z,68.68
2022-11-06T23:45:47.013Z,68.93
2022-11-06T23:48:16.759Z,69.61
2022-11-06T23:50:47.232Z,68.96
2022-11-06T23:53:19.603Z,69.41
2022-11-06T23:55:49.094Z,69.02
2022-11-06T23:58:18.552Z,69.12
